createdAt,value
2017-04-13T00:00:02.243Z,93.40
2017-04-13T00:01:01.509Z,93.40
2017-04-13T00:02:00.871Z,93.20
2017-04-13T00:03:00.193Z,93.40
2017-04-13T00:03:59.586Z,93.40
2017-04-13T00:04:58.947Z,93.20
2017-04-13T00:05:58.288Z,93.30
2017-04-13T00:06:57.655Z,93.10
2017-04-13T00:07:56.978Z,93.10
2017-04-13T00:08:57.003Z,93.10
2017-04-13T00:09:56.309Z,92.90
2017-04-13T00:10:55.739Z,93.10
2017-04-13T00:11:55.064Z,93.20
2017-04-13T00:12:54.499Z,93.10
2017-04-13T00:13:53.845Z,93.10
2017-04-13T00:14:53.282Z,92.90
2017-04-13T00:15:52.628Z,93.20
2017-04-13T00:16:51.969Z,93.10
2017-04-13T00:17:51.274Z,92.90
2017-04-13T00:18:50.587Z,93.10
2017-04-13T00:19:50.073Z,93.10
2017-04-13T00:20:49.503Z,92.90
2017-04-13T00:21:48.791Z,92.90
2017-04-13T00:22:48.119Z,92.90
2017-04-13T00:23:47.409Z,93.00
2017-04-13T00:24:46.712Z,93.00
2017-04-13T00:25:46.751Z,92.90
2017-04-13T00:26:46.035Z,92.90
2017-04-13T00:27:45.336Z,92.70
2017-04-13T00:28:44.634Z,92.70
2017-04-13T00:29:43.925Z,92.80
2017-04-13T00:30:43.293Z,93.00
2017-04-13T00:31:42.628Z,93.00
2017-04-13T00:32:41.951Z,93.10
2017-04-13T00:33:41.238Z,93.10
2017-04-13T00:34:40.534Z,93.00
2017-04-13T00:35:39.930Z,92.90
2017-04-13T00:36:40.295Z,92.90
2017-04-13T00:37:39.653Z,93.10
2017-04-13T00:38:38.944Z,93.50
2017-04-13T00:39:38.286Z,93.10
2017-04-13T00:40:37.671Z,93.00
2017-04-13T00:41:36.956Z,92.90
2017-04-13T00:42:36.297Z,92.80
2017-04-13T00:43:35.573Z,92.90
2017-04-13T00:44:34.866Z,93.00
2017-04-13T00:45:34.922Z,93.10
2017-04-13T00:46:34.332Z,93.10
2017-04-13T00:47:33.655Z,93.00
2017-04-13T00:48:33.805Z,93.10
2017-04-13T00:49:33.148Z,93.10
2017-04-13T00:50:33.191Z,93.30
2017-04-13T00:51:33.494Z,93.30
2017-04-13T00:52:32.770Z,93.10
2017-04-13T00:53:32.075Z,92.90
2017-04-13T00:54:31.414Z,92.90
2017-04-13T00:55:30.751Z,92.90
2017-04-13T00:56:30.023Z,92.90
2017-04-13T00:57:29.290Z,93.00
2017-04-13T00:58:28.565Z,93.00
2017-04-13T00:59:28.105Z,92.90
2017-04-13T01:00:28.259Z,93.10
2017-04-13T01:01:27.604Z,92.80
2017-04-13T01:02:27.653Z,92.70
2017-04-13T01:03:26.986Z,92.60
2017-04-13T01:04:26.336Z,92.60
2017-04-13T01:05:25.708Z,92.60
2017-04-13T01:06:24.947Z,92.50
2017-04-13T01:07:24.257Z,92.60
2017-04-13T01:08:23.565Z,92.60
2017-04-13T01:09:22.989Z,92.50
2017-04-13T01:10:22.594Z,92.60
2017-04-13T01:11:23.758Z,92.60
2017-04-13T01:12:23.249Z,92.60
2017-04-13T01:13:22.587Z,92.70
2017-04-13T01:14:21.877Z,92.80
2017-04-13T01:15:23.607Z,93.00
2017-04-13T01:16:22.947Z,93.00
2017-04-13T01:17:28.446Z,93.00
2017-04-13T01:18:27.795Z,93.10
2017-04-13T01:19:27.088Z,93.00
2017-04-13T01:20:26.706Z,92.90
2017-04-13T01:21:26.034Z,93.00
2017-04-13T01:22:25.361Z,93.00
2017-04-13T01:23:24.659Z,92.90
2017-04-13T01:24:23.944Z,93.00
2017-04-13T01:25:23.236Z,93.20
2017-04-13T01:26:22.642Z,93.20
2017-04-13T01:27:22.688Z,93.20
2017-04-13T01:28:22.006Z,93.30
2017-04-13T01:29:22.083Z,93.10
2017-04-13T01:30:21.551Z,93.30
2017-04-13T01:31:20.880Z,92.80
2017-04-13T01:32:20.154Z,92.70
2017-04-13T01:33:24.922Z,92.70
2017-04-13T01:34:24.204Z,92.90
2017-04-13T01:35:23.594Z,92.90
2017-04-13T01:36:22.916Z,92.90
2017-04-13T01:37:22.184Z,93.00
2017-04-13T01:38:21.492Z,93.10
2017-04-13T01:39:21.571Z,93.20
2017-04-13T01:40:20.865Z,93.30
2017-04-13T01:41:20.176Z,93.30
2017-04-13T01:42:19.488Z,93.00
2017-04-13T01:43:18.792Z,93.20
2017-04-13T01:44:18.105Z,93.00
2017-04-13T01:45:17.357Z,93.10
2017-04-13T01:46:16.925Z,93.30
2017-04-13T01:47:16.178Z,93.20
2017-04-13T01:48:16.213Z,93.30
2017-04-13T01:49:15.554Z,93.30
2017-04-13T01:50:14.917Z,93.30
2017-04-13T01:51:14.240Z,93.30
2017-04-13T01:52:13.636Z,93.20
2017-04-13T01:53:12.970Z,93.30
2017-04-13T01:54:12.288Z,93.20
2017-04-13T01:55:12.337Z,93.20
2017-04-13T01:56:11.637Z,93.20
2017-04-13T01:57:11.030Z,93.10
2017-04-13T01:58:11.060Z,93.10
2017-04-13T01:59:10.436Z,93.10
2017-04-13T02:00:09.784Z,93.00
2017-04-13T02:01:09.141Z,92.90
2017-04-13T02:02:08.527Z,93.00
2017-04-13T02:03:07.829Z,93.00
2017-04-13T02:04:07.240Z,93.00
2017-04-13T02:05:07.324Z,93.00
2017-04-13T02:06:06.643Z,93.10
2017-04-13T02:07:05.978Z,93.10
2017-04-13T02:08:05.344Z,93.10
2017-04-13T02:09:05.289Z,93.10
2017-04-13T02:10:04.608Z,93.10
2017-04-13T02:11:04.710Z,93.00
2017-04-13T02:12:04.043Z,93.00
2017-04-13T02:13:03.519Z,93.20
2017-04-13T02:14:02.866Z,93.30
2017-04-13T02:15:02.209Z,93.40
2017-04-13T02:16:01.519Z,93.40
2017-04-13T02:17:01.167Z,93.50
2017-04-13T02:18:00.457Z,93.50
2017-04-13T02:19:00.465Z,93.30
2017-04-13T02:19:59.771Z,93.40
2017-04-13T02:20:59.835Z,93.50
2017-04-13T02:21:59.270Z,93.40
2017-04-13T02:22:59.340Z,93.40
2017-04-13T02:23:58.635Z,93.40
2017-04-13T02:24:57.927Z,93.40
2017-04-13T02:25:57.232Z,93.40
2017-04-13T02:26:56.832Z,93.40
2017-04-13T02:27:56.939Z,93.70
2017-04-13T02:28:56.231Z,93.40
2017-04-13T02:29:56.241Z,93.50
2017-04-13T02:30:56.311Z,93.40
2017-04-13T02:31:55.582Z,93.30
2017-04-13T02:32:54.947Z,93.30
2017-04-13T02:33:54.244Z,93.40
2017-04-13T02:34:53.549Z,93.50
2017-04-13T02:35:52.863Z,93.40
2017-04-13T02:36:52.198Z,93.50
2017-04-13T02:37:51.549Z,93.50
2017-04-13T02:38:50.881Z,93.60
2017-04-13T02:39:50.893Z,93.60
2017-04-13T02:40:50.178Z,93.50
2017-04-13T02:41:50.218Z,93.60
2017-04-13T02:42:49.545Z,93.40
2017-04-13T02:43:48.871Z,93.40
2017-04-13T02:44:48.915Z,93.40
2017-04-13T02:45:48.230Z,93.50
2017-04-13T02:46:47.590Z,93.60
2017-04-13T02:47:46.923Z,93.60
2017-04-13T02:48:46.217Z,93.50
2017-04-13T02:49:45.526Z,93.40
2017-04-13T02:50:44.804Z,93.50
2017-04-13T02:51:44.145Z,93.50
2017-04-13T02:52:43.485Z,93.60
2017-04-13T02:53:42.800Z,93.60
2017-04-13T02:54:42.126Z,93.90
2017-04-13T02:55:42.185Z,93.90
2017-04-13T02:56:42.223Z,93.90
2017-04-13T02:57:41.535Z,93.90
2017-04-13T02:58:40.850Z,93.80
2017-04-13T02:59:40.113Z,93.80
2017-04-13T03:00:39.440Z,94.00
2017-04-13T03:01:38.793Z,93.90
2017-04-13T03:02:38.197Z,93.80
2017-04-13T03:04:37.054Z,93.80
2017-04-13T03:05:36.385Z,93.80
2017-04-13T03:06:35.657Z,93.80
2017-04-13T03:07:35.395Z,93.80
2017-04-13T03:08:34.658Z,93.80
2017-04-13T03:09:34.776Z,93.70
2017-04-13T03:10:34.161Z,93.70
2017-04-13T03:11:33.509Z,93.50
2017-04-13T03:12:32.769Z,93.70
2017-04-13T03:13:35.057Z,93.80
2017-04-13T03:14:34.374Z,93.90
2017-04-13T03:15:33.639Z,93.80
2017-04-13T03:16:32.941Z,93.90
2017-04-13T03:17:32.231Z,93.90
2017-04-13T03:18:31.552Z,93.90
2017-04-13T03:19:31.216Z,94.00
2017-04-13T03:20:30.557Z,94.00
2017-04-13T03:21:29.837Z,94.00
2017-04-13T03:22:29.210Z,94.00
2017-04-13T03:23:28.619Z,94.30
2017-04-13T03:24:27.909Z,94.10
2017-04-13T03:25:27.187Z,94.10
2017-04-13T03:26:26.485Z,94.10
2017-04-13T03:27:25.803Z,94.10
2017-04-13T03:28:25.830Z,93.90
2017-04-13T03:29:25.289Z,94.00
2017-04-13T03:30:24.652Z,94.10
2017-04-13T03:31:31.355Z,94.10
2017-04-13T03:32:30.646Z,94.00
2017-04-13T03:33:29.961Z,94.00
2017-04-13T03:34:29.228Z,94.20
2017-04-13T03:35:28.609Z,94.20
2017-04-13T03:36:27.925Z,94.20
2017-04-13T03:37:36.494Z,94.20
2017-04-13T03:38:39.131Z,94.20
2017-04-13T03:39:43.059Z,94.20
2017-04-13T03:40:45.970Z,94.40
2017-04-13T03:41:51.399Z,94.40
2017-04-13T03:42:50.829Z,94.30
2017-04-13T03:43:58.101Z,94.30
2017-04-13T03:45:01.942Z,94.30
2017-04-13T03:46:01.480Z,94.30
2017-04-13T03:47:04.529Z,94.40
2017-04-13T03:48:03.850Z,94.30
2017-04-13T03:49:03.966Z,94.30
2017-04-13T03:50:03.316Z,94.30
2017-04-13T03:51:02.604Z,94.20
2017-04-13T03:52:01.903Z,94.20
2017-04-13T03:53:01.191Z,94.20
2017-04-13T03:54:01.621Z,94.20
2017-04-13T03:55:01.354Z,94.20
2017-04-13T03:56:01.182Z,94.30
2017-04-13T03:57:00.480Z,94.40
2017-04-13T03:57:59.721Z,94.30
2017-04-13T03:58:59.103Z,94.20
2017-04-13T03:59:58.554Z,94.20
2017-04-13T04:00:57.880Z,94.10
2017-04-13T04:01:57.203Z,94.20
2017-04-13T04:02:56.511Z,94.20
2017-04-13T04:03:55.881Z,94.20
2017-04-13T04:04:55.267Z,94.20
2017-04-13T04:05:54.869Z,94.10
2017-04-13T04:06:54.143Z,93.90
2017-04-13T04:07:53.401Z,93.90
2017-04-13T04:08:52.738Z,94.00
2017-04-13T04:09:52.052Z,94.10
2017-04-13T04:10:51.358Z,94.10
2017-04-13T04:11:50.721Z,93.90
2017-04-13T04:12:50.069Z,93.90
2017-04-13T04:13:50.153Z,93.90
2017-04-13T04:14:49.472Z,93.90
2017-04-13T04:15:48.746Z,93.80
2017-04-13T04:16:48.388Z,93.70
2017-04-13T04:17:47.647Z,93.80
2017-04-13T04:18:47.245Z,93.80
2017-04-13T04:19:47.278Z,93.70
2017-04-13T04:20:46.622Z,93.70
2017-04-13T04:21:45.929Z,93.70
2017-04-13T04:22:45.297Z,93.70
2017-04-13T04:23:44.773Z,93.60
2017-04-13T04:24:44.115Z,93.60
2017-04-13T04:25:43.467Z,93.60
2017-04-13T04:26:42.772Z,93.50
2017-04-13T04:27:42.128Z,93.70
2017-04-13T04:28:41.513Z,93.60
2017-04-13T04:29:40.848Z,93.70
2017-04-13T04:30:40.150Z,93.60
2017-04-13T04:31:39.480Z,93.70
2017-04-13T04:32:38.821Z,93.70
2017-04-13T04:33:38.136Z,93.80
2017-04-13T04:34:38.625Z,93.80
2017-04-13T04:35:37.944Z,93.90
2017-04-13T04:36:37.372Z,93.80
2017-04-13T04:37:36.681Z,93.70
2017-04-13T04:38:36.002Z,94.00
2017-04-13T04:39:35.390Z,93.80
2017-04-13T04:40:35.365Z,93.70
2017-04-13T04:41:34.686Z,93.60
2017-04-13T04:42:34.026Z,93.50
2017-04-13T04:43:33.373Z,93.40
2017-04-13T04:44:32.706Z,93.30
2017-04-13T04:45:32.336Z,93.10
2017-04-13T04:46:31.627Z,93.20
2017-04-13T04:47:30.999Z,93.20
2017-04-13T04:48:30.637Z,93.20
2017-04-13T04:49:29.952Z,93.40
2017-04-13T04:50:29.226Z,93.40
2017-04-13T04:51:29.462Z,93.30
2017-04-13T04:52:28.824Z,93.40
2017-04-13T04:53:28.229Z,93.40
2017-04-13T04:54:28.385Z,93.70
2017-04-13T04:55:27.712Z,93.60
2017-04-13T04:56:29.388Z,93.60
2017-04-13T04:57:28.682Z,93.50
2017-04-13T04:58:27.969Z,93.30
2017-04-13T04:59:27.361Z,93.30
2017-04-13T05:00:26.723Z,93.20
2017-04-13T05:01:26.294Z,93.50
2017-04-13T05:02:26.491Z,93.40
2017-04-13T05:03:26.877Z,93.30
2017-04-13T05:04:30.911Z,93.10
2017-04-13T05:05:30.677Z,93.10
2017-04-13T05:06:30.284Z,93.10
2017-04-13T05:07:29.655Z,93.30
2017-04-13T05:08:29.528Z,93.30
2017-04-13T05:09:28.904Z,93.30
2017-04-13T05:10:28.372Z,93.20
2017-04-13T05:11:27.890Z,93.10
2017-04-13T05:12:27.287Z,93.00
2017-04-13T05:13:28.424Z,92.90
2017-04-13T05:14:27.748Z,92.90
2017-04-13T05:15:27.123Z,92.90
2017-04-13T05:16:26.459Z,93.00
2017-04-13T05:17:25.741Z,93.20
2017-04-13T05:18:25.049Z,93.00
2017-04-13T05:19:24.332Z,93.00
2017-04-13T05:20:23.750Z,92.80
2017-04-13T05:21:23.070Z,92.70
2017-04-13T05:22:22.355Z,92.70
2017-04-13T05:23:21.651Z,92.70
2017-04-13T05:24:21.131Z,92.80
2017-04-13T05:25:20.490Z,92.80
2017-04-13T05:26:19.793Z,92.70
2017-04-13T05:27:19.113Z,92.70
2017-04-13T05:28:18.435Z,92.60
2017-04-13T05:29:18.546Z,92.60
2017-04-13T05:30:17.927Z,92.30
2017-04-13T05:31:17.938Z,92.40
2017-04-13T05:32:17.235Z,92.60
2017-04-13T05:33:16.556Z,92.30
2017-04-13T05:34:15.914Z,92.40
2017-04-13T05:35:15.502Z,92.50
2017-04-13T05:36:14.878Z,92.50
2017-04-13T05:37:15.322Z,92.60
2017-04-13T05:38:14.647Z,92.70
2017-04-13T05:39:14.530Z,92.40
2017-04-13T05:40:13.908Z,92.10
2017-04-13T05:41:13.181Z,92.10
2017-04-13T05:42:12.488Z,92.10
2017-04-13T05:43:11.884Z,92.00
2017-04-13T05:44:11.227Z,92.10
2017-04-13T05:45:10.574Z,92.00
2017-04-13T05:46:09.880Z,92.10
2017-04-13T05:47:09.196Z,91.60
2017-04-13T05:48:08.472Z,91.60
2017-04-13T05:49:09.064Z,91.70
2017-04-13T05:50:08.398Z,91.70
2017-04-13T05:51:07.750Z,91.60
2017-04-13T05:52:07.131Z,91.70
2017-04-13T05:53:06.457Z,91.30
2017-04-13T05:54:05.765Z,91.20
2017-04-13T05:55:05.053Z,91.20
2017-04-13T05:56:04.425Z,91.10
2017-04-13T05:57:03.753Z,91.00
2017-04-13T05:58:03.070Z,91.10
2017-04-13T05:59:03.086Z,91.00
2017-04-13T06:00:02.384Z,91.10
2017-04-13T06:01:01.758Z,91.10
2017-04-13T06:02:01.049Z,91.40
2017-04-13T06:03:00.396Z,90.80
2017-04-13T06:03:59.751Z,90.80
2017-04-13T06:05:00.472Z,90.90
2017-04-13T06:05:59.818Z,90.80
2017-04-13T06:06:59.199Z,90.70
2017-04-13T06:07:58.489Z,90.80
2017-04-13T06:08:57.813Z,90.80
2017-04-13T06:09:57.133Z,90.70
2017-04-13T06:10:56.847Z,90.60
2017-04-13T06:11:56.157Z,90.40
2017-04-13T06:12:55.679Z,90.30
2017-04-13T06:13:55.109Z,90.20
2017-04-13T06:14:54.428Z,90.10
2017-04-13T06:15:53.999Z,90.00
2017-04-13T06:16:53.288Z,90.00
2017-04-13T06:17:52.668Z,89.70
2017-04-13T06:18:51.952Z,89.70
2017-04-13T06:19:51.263Z,90.10
2017-04-13T06:20:50.634Z,90.10
2017-04-13T06:21:49.917Z,89.30
2017-04-13T06:22:49.218Z,88.50
2017-04-13T06:23:49.450Z,88.80
2017-04-13T06:24:48.740Z,89.10
2017-04-13T06:25:48.364Z,88.70
2017-04-13T06:26:47.742Z,88.60
2017-04-13T06:27:47.082Z,88.30
2017-04-13T06:28:46.479Z,88.80
2017-04-13T06:29:45.805Z,88.40
2017-04-13T06:30:45.243Z,88.60
2017-04-13T06:31:45.533Z,87.70
2017-04-13T06:32:44.884Z,86.80
2017-04-13T06:33:44.213Z,86.80
2017-04-13T06:34:43.605Z,86.90
2017-04-13T06:35:42.939Z,86.40
2017-04-13T06:36:42.984Z,86.60
2017-04-13T06:37:42.313Z,87.00
2017-04-13T06:38:41.622Z,86.80
2017-04-13T06:39:40.884Z,86.50
2017-04-13T06:40:40.253Z,86.60
2017-04-13T06:41:39.648Z,86.60
2017-04-13T06:42:38.962Z,86.20
2017-04-13T06:43:38.273Z,85.80
2017-04-13T06:44:38.336Z,86.10
2017-04-13T06:45:37.886Z,85.60
2017-04-13T06:46:37.253Z,85.60
2017-04-13T06:47:36.559Z,85.70
2017-04-13T06:48:35.922Z,85.30
2017-04-13T06:49:35.324Z,87.90
2017-04-13T06:50:34.825Z,88.70
2017-04-13T06:51:34.148Z,87.90
2017-04-13T06:52:33.474Z,88.00
2017-04-13T06:53:32.778Z,86.80
2017-04-13T06:54:32.139Z,85.60
2017-04-13T06:55:31.492Z,85.40
2017-04-13T06:56:31.576Z,85.50
2017-04-13T06:57:39.150Z,85.40
2017-04-13T06:58:42.719Z,84.90
2017-04-13T06:59:42.974Z,84.10
2017-04-13T07:00:43.999Z,84.20
2017-04-13T07:01:43.639Z,83.80
2017-04-13T07:02:56.465Z,84.10
2017-04-13T07:03:55.814Z,84.10
2017-04-13T07:04:55.149Z,83.40
2017-04-13T07:05:54.481Z,82.40
2017-04-13T07:06:54.138Z,82.90
2017-04-13T07:07:53.385Z,82.80
2017-04-13T07:08:52.858Z,83.00
2017-04-13T07:09:52.178Z,82.10
2017-04-13T07:10:51.582Z,81.70
2017-04-13T07:11:50.956Z,81.60
2017-04-13T07:12:50.956Z,81.10
2017-04-13T07:13:50.305Z,81.60
2017-04-13T07:14:49.592Z,80.80
2017-04-13T07:15:48.872Z,80.50
2017-04-13T07:16:48.504Z,81.00
2017-04-13T07:17:47.842Z,81.80
2017-04-13T07:18:47.149Z,81.90
2017-04-13T07:19:46.471Z,82.10
2017-04-13T07:20:45.824Z,81.30
2017-04-13T07:21:45.877Z,81.00
2017-04-13T07:22:45.164Z,80.80
2017-04-13T07:23:44.534Z,80.70
2017-04-13T07:24:43.826Z,80.20
2017-04-13T07:25:43.120Z,79.40
2017-04-13T07:26:42.664Z,79.80
2017-04-13T07:27:42.010Z,79.30
2017-04-13T07:28:42.114Z,79.40
2017-04-13T07:29:41.437Z,79.10
2017-04-13T07:30:40.748Z,79.00
2017-04-13T07:31:40.310Z,78.80
2017-04-13T07:32:45.917Z,78.60
2017-04-13T07:33:45.302Z,78.30
2017-04-13T07:34:44.641Z,77.90
2017-04-13T07:35:43.997Z,77.00
2017-04-13T07:36:43.307Z,76.00
2017-04-13T07:37:43.418Z,74.90
2017-04-13T07:38:42.724Z,75.80
2017-04-13T07:39:42.014Z,75.60
2017-04-13T07:40:41.350Z,74.40
2017-04-13T07:41:40.678Z,75.70
2017-04-13T07:42:39.974Z,76.50
2017-04-13T07:43:39.631Z,77.10
2017-04-13T07:44:38.880Z,81.20
2017-04-13T07:45:38.186Z,87.60
2017-04-13T07:46:37.504Z,89.20
2017-04-13T07:47:36.829Z,90.50
2017-04-13T07:48:36.158Z,91.00
2017-04-13T07:49:35.478Z,91.60
2017-04-13T07:50:34.798Z,92.20
2017-04-13T07:51:34.098Z,92.70
2017-04-13T07:52:33.386Z,93.00
2017-04-13T07:53:32.740Z,93.20
2017-04-13T07:54:32.051Z,93.60
2017-04-13T07:55:31.379Z,93.60
2017-04-13T07:56:30.706Z,94.00
2017-04-13T07:57:30.348Z,94.30
2017-04-13T07:58:29.634Z,94.10
2017-04-13T07:59:28.894Z,94.20
2017-04-13T08:00:28.228Z,94.20
2017-04-13T08:01:27.589Z,94.20
2017-04-13T08:02:26.953Z,94.20
2017-04-13T08:03:26.262Z,94.20
2017-04-13T08:04:25.514Z,93.80
2017-04-13T08:05:26.602Z,93.90
2017-04-13T08:06:25.904Z,93.90
2017-04-13T08:07:25.197Z,93.10
2017-04-13T08:08:24.463Z,93.40
2017-04-13T08:09:23.824Z,93.40
2017-04-13T08:10:23.086Z,93.80
2017-04-13T08:11:22.353Z,93.30
2017-04-13T08:12:21.797Z,92.90
2017-04-13T08:13:21.088Z,92.50
2017-04-13T08:14:20.395Z,92.00
2017-04-13T08:15:19.727Z,92.60
2017-04-13T08:16:19.144Z,92.80
2017-04-13T08:17:18.894Z,92.30
2017-04-13T08:18:18.216Z,92.60
2017-04-13T08:19:18.800Z,92.10
2017-04-13T08:20:18.090Z,91.90
2017-04-13T08:21:17.383Z,92.00
2017-04-13T08:22:16.680Z,91.70
2017-04-13T08:23:18.212Z,91.30
2017-04-13T08:24:17.603Z,91.20
2017-04-13T08:25:16.939Z,91.30
2017-04-13T08:26:16.293Z,90.90
2017-04-13T08:27:15.587Z,90.90
2017-04-13T08:28:14.903Z,90.60
2017-04-13T08:29:14.224Z,90.60
2017-04-13T08:30:13.518Z,91.00
2017-04-13T08:31:12.797Z,90.10
2017-04-13T08:32:12.153Z,88.90
2017-04-13T08:33:11.602Z,90.00
2017-04-13T08:34:10.912Z,89.90
2017-04-13T08:35:11.026Z,89.80
2017-04-13T08:36:10.349Z,88.80
2017-04-13T08:37:10.429Z,89.70
2017-04-13T08:38:09.797Z,88.50
2017-04-13T08:39:10.647Z,88.50
2017-04-13T08:40:09.927Z,87.70
2017-04-13T08:41:09.229Z,87.80
2017-04-13T08:42:08.738Z,86.80
2017-04-13T08:43:08.084Z,86.70
2017-04-13T08:44:07.396Z,87.10
2017-04-13T08:45:06.708Z,86.30
2017-04-13T08:47:01.265Z,87.20
2017-04-13T08:48:00.578Z,87.00
2017-04-13T08:48:59.902Z,86.00
2017-04-13T08:49:59.952Z,84.50
2017-04-13T08:50:59.253Z,84.10
2017-04-13T08:51:58.595Z,84.40
2017-04-13T08:52:58.518Z,83.40
2017-04-13T08:53:57.819Z,83.40
2017-04-13T08:54:57.103Z,82.50
2017-04-13T08:55:56.728Z,81.80
2017-04-13T08:56:56.018Z,82.30
2017-04-13T08:57:55.297Z,83.50
2017-04-13T08:58:54.664Z,83.30
2017-04-13T08:59:53.968Z,81.90
2017-04-13T09:00:53.257Z,81.60
2017-04-13T09:01:52.556Z,82.20
2017-04-13T09:02:51.820Z,82.40
2017-04-13T09:03:51.169Z,81.50
2017-04-13T09:04:50.533Z,80.30
2017-04-13T09:05:49.831Z,80.50
2017-04-13T09:06:49.112Z,80.10
2017-04-13T09:07:48.504Z,80.80
2017-04-13T09:08:47.956Z,80.40
2017-04-13T09:09:47.263Z,80.20
2017-04-13T09:10:46.575Z,79.80
2017-04-13T09:11:46.003Z,78.60
2017-04-13T09:12:46.099Z,78.20
2017-04-13T09:13:45.575Z,78.00
2017-04-13T09:14:44.925Z,78.90
2017-04-13T09:15:44.273Z,79.70
2017-04-13T09:16:43.680Z,80.10
2017-04-13T09:17:43.015Z,81.70
2017-04-13T09:18:42.721Z,83.40
2017-04-13T09:19:42.057Z,85.00
2017-04-13T09:20:41.333Z,86.80
2017-04-13T09:21:40.726Z,87.40
2017-04-13T09:22:40.177Z,87.90
2017-04-13T09:23:39.531Z,87.20
2017-04-13T09:24:38.824Z,86.50
2017-04-13T09:25:38.901Z,86.30
2017-04-13T09:26:38.289Z,87.30
2017-04-13T09:27:37.658Z,86.60
2017-04-13T09:28:36.977Z,86.40
2017-04-13T09:29:36.305Z,87.00
2017-04-13T09:30:35.675Z,87.30
2017-04-13T09:31:35.037Z,86.90
2017-04-13T09:32:34.543Z,86.10
2017-04-13T09:33:33.852Z,87.20
2017-04-13T09:34:33.250Z,86.50
2017-04-13T09:35:32.545Z,86.20
2017-04-13T09:36:31.921Z,86.70
2017-04-13T09:37:31.308Z,87.10
2017-04-13T09:38:30.673Z,85.60
2017-04-13T09:39:30.001Z,85.30
2017-04-13T09:40:29.332Z,83.60
2017-04-13T09:41:29.751Z,82.80
2017-04-13T09:42:28.974Z,81.10
2017-04-13T09:43:28.277Z,80.00
2017-04-13T09:44:27.654Z,79.60
2017-04-13T09:45:26.965Z,80.00
2017-04-13T09:46:26.295Z,79.60
2017-04-13T09:47:25.953Z,79.30
2017-04-13T09:48:25.271Z,78.50
2017-04-13T09:49:25.634Z,76.90
2017-04-13T09:50:24.956Z,76.10
2017-04-13T09:51:24.254Z,75.70
2017-04-13T09:52:23.541Z,76.30
2017-04-13T09:53:22.833Z,76.30
2017-04-13T09:54:22.141Z,76.80
2017-04-13T09:55:22.200Z,76.50
2017-04-13T09:56:21.521Z,76.90
2017-04-13T09:57:20.846Z,76.30
2017-04-13T09:58:20.228Z,76.60
2017-04-13T09:59:19.626Z,75.90
2017-04-13T10:00:18.982Z,75.70
2017-04-13T10:01:18.588Z,75.10
2017-04-13T10:02:17.892Z,74.70
2017-04-13T10:03:17.271Z,74.90
2017-04-13T10:04:16.609Z,74.90
2017-04-13T10:05:15.880Z,75.30
2017-04-13T10:06:15.161Z,76.00
2017-04-13T10:07:15.217Z,75.30
2017-04-13T10:08:14.509Z,75.30
2017-04-13T10:09:13.863Z,75.20
2017-04-13T10:10:13.180Z,75.20
2017-04-13T10:11:12.507Z,75.50
2017-04-13T10:12:11.808Z,75.60
2017-04-13T10:13:12.519Z,76.60
2017-04-13T10:14:11.807Z,76.70
2017-04-13T10:15:11.409Z,75.80
2017-04-13T10:16:10.697Z,75.50
2017-04-13T10:17:10.006Z,75.60
2017-04-13T10:18:09.314Z,75.10
2017-04-13T10:19:08.682Z,74.90
2017-04-13T10:20:07.963Z,75.50
2017-04-13T10:21:07.255Z,75.90
2017-04-13T10:22:06.545Z,75.30
2017-04-13T10:23:05.873Z,75.00
2017-04-13T10:24:05.153Z,74.00
2017-04-13T10:25:04.888Z,73.40
2017-04-13T10:26:04.192Z,73.20
2017-04-13T10:27:03.519Z,72.50
2017-04-13T10:28:03.570Z,72.50
2017-04-13T10:29:02.990Z,71.90
2017-04-13T10:30:02.287Z,72.50
2017-04-13T10:31:01.683Z,71.70
2017-04-13T10:32:01.055Z,71.30
2017-04-13T10:33:01.096Z,70.70
2017-04-13T10:34:00.366Z,71.30
2017-04-13T10:34:59.618Z,71.30
2017-04-13T10:35:59.091Z,71.00
2017-04-13T10:36:58.390Z,71.60
2017-04-13T10:37:57.673Z,71.00
2017-04-13T10:38:56.957Z,71.80
2017-04-13T10:39:56.228Z,70.70
2017-04-13T10:40:56.276Z,71.30
2017-04-13T10:41:55.573Z,72.60
2017-04-13T10:42:54.904Z,73.80
2017-04-13T10:43:54.188Z,74.20
2017-04-13T10:44:53.505Z,74.30
2017-04-13T10:45:52.799Z,75.50
2017-04-13T10:46:52.085Z,76.50
2017-04-13T10:47:51.376Z,76.00
2017-04-13T10:48:50.648Z,77.80
2017-04-13T10:49:49.902Z,78.00
2017-04-13T10:50:49.234Z,79.50
2017-04-13T10:51:48.494Z,79.00
2017-04-13T10:52:47.762Z,76.60
2017-04-13T10:53:47.086Z,76.00
2017-04-13T10:54:46.382Z,75.10
2017-04-13T10:55:45.773Z,74.80
2017-04-13T10:56:45.022Z,73.30
2017-04-13T10:57:44.335Z,73.70
2017-04-13T10:58:43.645Z,73.40
2017-04-13T10:59:42.957Z,74.90
2017-04-13T11:00:42.997Z,74.20
2017-04-13T11:01:42.348Z,73.10
2017-04-13T11:02:42.381Z,73.50
2017-04-13T11:03:41.688Z,72.90
2017-04-13T11:04:40.952Z,71.90
2017-04-13T11:05:40.254Z,72.40
2017-04-13T11:06:39.564Z,72.60
2017-04-13T11:07:38.879Z,71.30
2017-04-13T11:08:38.226Z,71.20
2017-04-13T11:09:37.554Z,71.00
2017-04-13T11:10:36.844Z,71.90
2017-04-13T11:11:36.325Z,70.30
2017-04-13T11:12:35.630Z,70.10
2017-04-13T11:13:34.984Z,71.40
2017-04-13T11:14:34.275Z,69.60
2017-04-13T11:15:33.556Z,69.00
2017-04-13T11:16:32.909Z,67.40
2017-04-13T11:17:32.757Z,66.90
2017-04-13T11:18:36.316Z,67.30
2017-04-13T11:19:36.517Z,67.90
2017-04-13T11:20:36.025Z,67.60
2017-04-13T11:21:36.089Z,67.60
2017-04-13T11:22:35.430Z,66.80
2017-04-13T11:23:35.500Z,67.10
2017-04-13T11:24:34.965Z,67.50
2017-04-13T11:25:34.332Z,66.60
2017-04-13T11:26:34.094Z,67.20
2017-04-13T11:27:33.548Z,66.80
2017-04-13T11:28:32.862Z,66.20
2017-04-13T11:29:33.921Z,65.80
2017-04-13T11:30:33.976Z,65.80
2017-04-13T11:31:34.784Z,65.60
2017-04-13T11:32:34.431Z,66.10
2017-04-13T11:33:33.791Z,66.00
2017-04-13T11:34:33.646Z,66.70
2017-04-13T11:35:33.032Z,67.30
2017-04-13T11:36:32.419Z,67.40
2017-04-13T11:37:31.757Z,67.30
2017-04-13T11:38:31.066Z,66.90
2017-04-13T11:39:30.634Z,65.90
2017-04-13T11:40:29.920Z,65.80
2017-04-13T11:41:29.742Z,66.10
2017-04-13T11:42:29.120Z,66.30
2017-04-13T11:43:28.421Z,66.40
2017-04-13T11:44:27.680Z,66.70
2017-04-13T11:45:27.775Z,67.00
2017-04-13T11:46:27.069Z,67.10
2017-04-13T11:47:26.349Z,67.90
2017-04-13T11:48:25.699Z,67.40
2017-04-13T11:49:24.999Z,67.70
2017-04-13T11:50:24.294Z,67.30
2017-04-13T11:51:23.585Z,67.30
2017-04-13T11:52:22.881Z,67.30
2017-04-13T11:53:22.181Z,67.00
2017-04-13T11:54:21.452Z,67.40
2017-04-13T11:55:21.099Z,67.60
2017-04-13T11:56:20.457Z,68.00
2017-04-13T11:57:20.268Z,68.00
2017-04-13T11:58:20.706Z,68.10
2017-04-13T11:59:20.771Z,68.00
2017-04-13T12:00:20.075Z,67.90
2017-04-13T12:01:20.098Z,67.90
2017-04-13T12:02:19.501Z,67.60
2017-04-13T12:03:18.811Z,68.10
2017-04-13T12:04:18.977Z,68.90
2017-04-13T12:05:18.985Z,67.80
2017-04-13T12:06:18.301Z,67.20
2017-04-13T12:07:17.682Z,67.60
2017-04-13T12:08:16.948Z,66.90
2017-04-13T12:09:16.217Z,67.30
2017-04-13T12:10:15.583Z,67.30
2017-04-13T12:11:14.896Z,68.10
2017-04-13T12:12:14.270Z,69.20
2017-04-13T12:13:13.613Z,69.20
2017-04-13T12:14:13.057Z,68.90
2017-04-13T12:15:12.368Z,67.70
2017-04-13T12:16:11.694Z,67.80
2017-04-13T12:17:11.000Z,67.20
2017-04-13T12:18:10.322Z,67.10
2017-04-13T12:19:09.714Z,67.80
2017-04-13T12:20:09.012Z,66.40
2017-04-13T12:21:08.333Z,66.30
2017-04-13T12:22:07.695Z,66.60
2017-04-13T12:23:07.021Z,67.00
2017-04-13T12:24:06.328Z,66.30
2017-04-13T12:25:05.621Z,66.60
2017-04-13T12:26:04.968Z,66.20
2017-04-13T12:27:04.328Z,65.90
2017-04-13T12:28:03.629Z,66.30
2017-04-13T12:29:02.892Z,67.40
2017-04-13T12:30:02.149Z,67.20
2017-04-13T12:31:01.432Z,67.80
2017-04-13T12:32:00.776Z,67.30
2017-04-13T12:33:00.103Z,67.40
2017-04-13T12:33:59.724Z,67.20
2017-04-13T12:34:59.210Z,67.50
2017-04-13T12:35:58.851Z,68.00
2017-04-13T12:36:58.873Z,67.90
2017-04-13T12:37:58.215Z,68.90
2017-04-13T12:38:58.228Z,68.40
2017-04-13T12:39:57.547Z,68.60
2017-04-13T12:40:57.615Z,69.50
2017-04-13T12:41:57.128Z,70.20
2017-04-13T12:42:56.452Z,69.60
2017-04-13T12:43:55.788Z,68.90
2017-04-13T12:44:55.262Z,68.30
2017-04-13T12:45:54.553Z,69.40
2017-04-13T12:46:53.994Z,68.60
2017-04-13T12:47:53.369Z,69.20
2017-04-13T12:48:52.695Z,69.00